createdAt,value
2022-10-08T00:00:41.487Z,11.83
2022-10-08T00:01:41.500Z,11.83
2022-10-08T00:02:41.457Z,11.82
2022-10-08T00:03:41.441Z,11.82
2022-10-08T00:04:41.504Z,11.79
2022-10-08T00:05:41.418Z,11.79
2022-10-08T00:06:41.410Z,11.78
2022-10-08T00:07:41.398Z,11.78
2022-10-08T00:08:41.426Z,11.73
2022-10-08T00:09:41.374Z,11.73
2022-10-08T00:10:41.368Z,11.72
2022-10-08T00:11:41.352Z,11.70
2022-10-08T00:12:41.357Z,11.69
2022-10-08T00:13:41.334Z,11.67
2022-10-08T00:14:41.340Z,11.65
2022-10-08T00:15:41.309Z,11.64
2022-10-08T00:16:41.377Z,11.64
2022-10-08T00:17:41.299Z,11.62
2022-10-08T00:18:41.282Z,11.61
2022-10-08T00:19:41.267Z,11.60
2022-10-08T00:20:41.278Z,11.58
2022-10-08T00:21:41.247Z,11.57
2022-10-08T00:22:41.239Z,11.57
2022-10-08T00:23:41.224Z,11.55
2022-10-08T00:24:41.218Z,11.57
2022-10-08T00:25:41.204Z,11.54
2022-10-08T00:26:43.806Z,11.52
2022-10-08T00:27:41.180Z,11.54
2022-10-08T00:28:41.207Z,11.52
2022-10-08T00:29:41.168Z,11.52
2022-10-08T00:30:41.154Z,11.52
2022-10-08T00:31:41.185Z,11.52
2022-10-08T00:32:41.131Z,11.52
2022-10-08T00:33:41.124Z,11.54
2022-10-08T00:34:41.109Z,11.54
2022-10-08T00:35:41.097Z,11.52
2022-10-08T00:36:41.097Z,11.54
2022-10-08T00:37:41.073Z,11.54
2022-10-08T00:38:41.066Z,11.54
2022-10-08T00:39:41.055Z,11.57
2022-10-08T00:40:41.044Z,11.57
2022-10-08T00:41:41.035Z,11.58
2022-10-08T00:42:41.033Z,11.60
2022-10-08T00:43:41.012Z,11.62
2022-10-08T00:44:41.009Z,11.64
2022-10-08T00:45:41.033Z,11.64
2022-10-08T00:46:40.978Z,11.65
2022-10-08T00:47:40.973Z,11.67
2022-10-08T00:48:40.959Z,11.70
2022-10-08T00:49:40.942Z,11.70
2022-10-08T00:50:40.946Z,11.70
2022-10-08T00:51:40.924Z,11.73
2022-10-08T00:52:40.914Z,11.73
2022-10-08T00:53:40.899Z,11.76
2022-10-08T00:54:40.899Z,11.75
2022-10-08T00:55:43.612Z,11.76
2022-10-08T00:56:40.887Z,11.78
2022-10-08T00:57:40.864Z,11.78
2022-10-08T00:58:40.850Z,11.78
2022-10-08T00:59:40.836Z,11.79
2022-10-08T01:00:40.866Z,11.79
2022-10-08T01:01:40.842Z,11.80
2022-10-08T01:02:40.806Z,11.79
2022-10-08T01:03:40.792Z,11.79
2022-10-08T01:04:40.783Z,11.80
2022-10-08T01:05:40.776Z,11.80
2022-10-08T01:06:40.779Z,11.82
2022-10-08T01:07:40.752Z,11.80
2022-10-08T01:08:40.743Z,11.80
2022-10-08T01:09:40.732Z,11.80
2022-10-08T01:10:40.723Z,11.80
2022-10-08T01:11:40.716Z,11.79
2022-10-08T01:12:40.702Z,11.80
2022-10-08T01:13:40.696Z,11.80
2022-10-08T01:14:40.677Z,11.82
2022-10-08T01:15:40.663Z,11.83
2022-10-08T01:16:40.729Z,11.85
2022-10-08T01:17:40.720Z,11.85
2022-10-08T01:18:40.635Z,11.88
2022-10-08T01:19:40.618Z,11.86
2022-10-08T01:20:40.612Z,11.88
2022-10-08T01:21:40.599Z,11.90
2022-10-08T01:22:40.594Z,11.91
2022-10-08T01:23:40.598Z,11.94
2022-10-08T01:24:40.568Z,11.94
2022-10-08T01:25:40.555Z,11.95
2022-10-08T01:26:40.549Z,11.95
2022-10-08T01:27:40.537Z,11.98
2022-10-08T01:28:40.622Z,11.96
2022-10-08T01:29:40.527Z,11.98
2022-10-08T01:30:40.505Z,11.98
2022-10-08T01:31:40.630Z,11.98
2022-10-08T01:32:40.484Z,11.98
2022-10-08T01:33:40.467Z,11.98
2022-10-08T01:34:40.463Z,11.98
2022-10-08T01:35:40.463Z,11.99
2022-10-08T01:36:40.443Z,11.98
2022-10-08T01:37:40.427Z,11.99
2022-10-08T01:38:40.419Z,11.98
2022-10-08T01:39:40.405Z,11.98
2022-10-08T01:40:40.410Z,11.96
2022-10-08T01:41:40.384Z,11.95
2022-10-08T01:42:40.377Z,11.95
2022-10-08T01:43:40.372Z,11.94
2022-10-08T01:44:40.355Z,11.91
2022-10-08T01:45:40.406Z,11.90
2022-10-08T01:46:40.334Z,11.86
2022-10-08T01:47:40.319Z,11.88
2022-10-08T01:48:40.310Z,11.85
2022-10-08T01:49:40.301Z,11.85
2022-10-08T01:50:40.303Z,11.83
2022-10-08T01:51:40.277Z,11.83
2022-10-08T01:52:40.271Z,11.85
2022-10-08T01:53:40.259Z,11.83
2022-10-08T01:54:40.251Z,11.83
2022-10-08T01:55:40.236Z,11.85
2022-10-08T01:56:40.231Z,11.85
2022-10-08T01:57:40.214Z,11.85
2022-10-08T01:58:40.202Z,11.85
2022-10-08T01:59:40.192Z,11.86
2022-10-08T02:00:40.188Z,11.86
2022-10-08T02:01:40.173Z,11.88
2022-10-08T02:02:40.203Z,11.86
2022-10-08T02:03:40.149Z,11.86
2022-10-08T02:04:40.136Z,11.88
2022-10-08T02:05:40.144Z,11.90
2022-10-08T02:06:40.114Z,11.88
2022-10-08T02:07:40.107Z,11.90
2022-10-08T02:08:40.100Z,11.90
2022-10-08T02:09:40.089Z,11.90
2022-10-08T02:10:40.071Z,11.90
2022-10-08T02:11:40.076Z,11.90
2022-10-08T02:12:40.049Z,11.90
2022-10-08T02:13:40.042Z,11.90
2022-10-08T02:14:40.027Z,11.90
2022-10-08T02:15:40.024Z,11.91
2022-10-08T02:16:40.066Z,11.91
2022-10-08T02:17:40.013Z,11.88
2022-10-08T02:18:39.996Z,11.90
2022-10-08T02:19:39.982Z,11.90
2022-10-08T02:20:39.962Z,11.90
2022-10-08T02:21:39.957Z,11.91
2022-10-08T02:22:39.944Z,11.91
2022-10-08T02:23:39.948Z,11.94
2022-10-08T02:24:39.921Z,11.91
2022-10-08T02:25:39.914Z,11.91
2022-10-08T02:26:39.901Z,11.94
2022-10-08T02:27:39.905Z,11.91
2022-10-08T02:28:39.954Z,11.91
2022-10-08T02:29:39.868Z,11.95
2022-10-08T02:30:39.855Z,11.91
2022-10-08T02:31:39.901Z,11.91
2022-10-08T02:32:39.836Z,11.90
2022-10-08T02:33:39.841Z,11.90
2022-10-08T02:34:39.817Z,11.91
2022-10-08T02:35:39.810Z,11.90
2022-10-08T02:36:39.794Z,11.90
2022-10-08T02:37:39.784Z,11.90
2022-10-08T02:38:39.783Z,11.90
2022-10-08T02:39:39.779Z,11.90
2022-10-08T02:40:39.759Z,11.90
2022-10-08T02:41:39.738Z,11.88
2022-10-08T02:42:39.729Z,11.90
2022-10-08T02:43:39.723Z,11.88
2022-10-08T02:44:39.733Z,11.90
2022-10-08T02:45:39.735Z,11.88
2022-10-08T02:46:39.692Z,11.90
2022-10-08T02:47:39.677Z,11.88
2022-10-08T02:48:39.668Z,11.88
2022-10-08T02:49:39.652Z,11.88
2022-10-08T02:50:39.656Z,11.88
2022-10-08T02:51:39.638Z,11.86
2022-10-08T02:52:39.625Z,11.86
2022-10-08T02:53:39.610Z,11.83
2022-10-08T02:54:39.600Z,11.82
2022-10-08T02:55:39.609Z,11.82
2022-10-08T02:56:39.582Z,11.79
2022-10-08T02:57:39.568Z,11.78
2022-10-08T02:58:39.573Z,11.78
2022-10-08T02:59:39.544Z,11.75
2022-10-08T03:00:39.549Z,11.75
2022-10-08T03:01:39.571Z,11.72
2022-10-08T03:02:39.616Z,11.70
2022-10-08T03:03:39.505Z,11.69
2022-10-08T03:04:39.492Z,11.67
2022-10-08T03:05:39.479Z,11.65
2022-10-08T03:06:39.482Z,11.64
2022-10-08T03:07:39.458Z,11.64
2022-10-08T03:08:39.454Z,11.64
2022-10-08T03:09:39.438Z,11.62
2022-10-08T03:10:39.429Z,11.60
2022-10-08T03:11:39.429Z,11.58
2022-10-08T03:12:39.409Z,11.58
2022-10-08T03:13:39.395Z,11.57
2022-10-08T03:14:39.387Z,11.55
2022-10-08T03:15:39.373Z,11.52
2022-10-08T03:16:39.454Z,11.52
2022-10-08T03:17:39.351Z,11.49
2022-10-08T03:18:39.346Z,11.47
2022-10-08T03:19:39.331Z,11.46
2022-10-08T03:20:39.322Z,11.44
2022-10-08T03:21:39.327Z,11.44
2022-10-08T03:22:39.297Z,11.43
2022-10-08T03:23:39.286Z,11.42
2022-10-08T03:24:39.279Z,11.40
2022-10-08T03:25:39.267Z,11.39
2022-10-08T03:26:39.258Z,11.36
2022-10-08T03:27:39.254Z,11.36
2022-10-08T03:28:39.294Z,11.36
2022-10-08T03:29:39.224Z,11.35
2022-10-08T03:30:39.266Z,11.33
2022-10-08T03:31:39.200Z,11.33
2022-10-08T03:32:39.192Z,11.33
2022-10-08T03:33:39.190Z,11.32
2022-10-08T03:34:39.181Z,11.32
2022-10-08T03:35:39.154Z,11.32
2022-10-08T03:36:39.149Z,11.28
2022-10-08T03:37:39.142Z,11.29
2022-10-08T03:38:39.131Z,11.27
2022-10-08T03:39:39.115Z,11.27
2022-10-08T03:40:39.121Z,11.27
2022-10-08T03:41:39.093Z,11.28
2022-10-08T03:42:39.086Z,11.27
2022-10-08T03:43:39.071Z,11.25
2022-10-08T03:44:39.071Z,11.24
2022-10-08T03:45:39.075Z,11.24
2022-10-08T03:46:39.040Z,11.22
2022-10-08T03:47:39.028Z,11.24
2022-10-08T03:48:39.032Z,11.22
2022-10-08T03:49:39.012Z,11.21
2022-10-08T03:50:39.004Z,11.21
2022-10-08T03:51:38.997Z,11.19
2022-10-08T03:52:38.984Z,11.19
2022-10-08T03:53:38.967Z,11.18
2022-10-08T03:54:38.970Z,11.17
2022-10-08T03:55:38.951Z,11.15
2022-10-08T03:56:38.947Z,11.17
2022-10-08T03:57:38.922Z,11.15
2022-10-08T03:58:38.929Z,11.15
2022-10-08T03:59:38.905Z,11.14
2022-10-08T04:00:38.896Z,11.15
2022-10-08T04:01:39.029Z,11.14
2022-10-08T04:02:38.934Z,11.15
2022-10-08T04:03:38.890Z,11.15
2022-10-08T04:04:38.857Z,11.15
2022-10-08T04:05:38.834Z,11.15
2022-10-08T04:06:38.828Z,11.15
2022-10-08T04:07:38.824Z,11.15
2022-10-08T04:08:38.830Z,11.14
2022-10-08T04:09:38.799Z,11.14
2022-10-08T04:10:38.793Z,11.15
2022-10-08T04:11:38.773Z,11.15
2022-10-08T04:12:38.763Z,11.15
2022-10-08T04:13:38.770Z,11.14
2022-10-08T04:14:38.745Z,11.14
2022-10-08T04:15:38.834Z,11.17
2022-10-08T04:16:38.733Z,11.14
2022-10-08T04:17:38.704Z,11.14
2022-10-08T04:18:38.703Z,11.11
2022-10-08T04:19:38.692Z,11.10
2022-10-08T04:20:38.677Z,11.10
2022-10-08T04:21:38.674Z,11.10
2022-10-08T04:22:38.659Z,11.10
2022-10-08T04:23:38.659Z,11.09
2022-10-08T04:24:38.638Z,11.14
2022-10-08T04:25:38.624Z,11.10
2022-10-08T04:26:38.612Z,11.11
2022-10-08T04:27:38.601Z,11.10
2022-10-08T04:28:39.158Z,11.11
2022-10-08T04:29:38.601Z,11.11
2022-10-08T04:30:38.569Z,11.10
2022-10-08T04:31:38.563Z,11.11
2022-10-08T04:32:38.550Z,11.10
2022-10-08T04:33:38.537Z,11.11
2022-10-08T04:34:38.534Z,11.14
2022-10-08T04:35:38.521Z,11.14
2022-10-08T04:36:38.512Z,11.15
2022-10-08T04:37:38.490Z,11.15
2022-10-08T04:38:38.488Z,11.18
2022-10-08T04:39:38.485Z,11.17
2022-10-08T04:40:38.462Z,11.19
2022-10-08T04:41:38.448Z,11.18
2022-10-08T04:42:38.454Z,11.18
2022-10-08T04:43:38.433Z,11.18
2022-10-08T04:44:38.417Z,11.19
2022-10-08T04:45:38.405Z,11.19
2022-10-08T04:46:38.466Z,11.19
2022-10-08T04:47:38.385Z,11.19
2022-10-08T04:48:38.376Z,11.21
2022-10-08T04:49:38.364Z,11.19
2022-10-08T04:50:38.353Z,11.18
2022-10-08T04:51:38.355Z,11.19
2022-10-08T04:52:38.337Z,11.19
2022-10-08T04:53:38.326Z,11.19
2022-10-08T04:54:38.330Z,11.21
2022-10-08T04:55:38.299Z,11.21
2022-10-08T04:56:38.289Z,11.22
2022-10-08T04:57:38.281Z,11.22
2022-10-08T04:58:38.267Z,11.22
2022-10-08T04:59:53.740Z,11.25
2022-10-08T05:00:38.263Z,11.25
2022-10-08T05:01:38.355Z,11.28
2022-10-08T05:02:38.297Z,11.28
2022-10-08T05:03:38.213Z,11.29
2022-10-08T05:04:38.159Z,11.29
2022-10-08T05:05:38.191Z,11.33
2022-10-08T05:06:38.144Z,11.33
2022-10-08T05:07:38.115Z,11.35
2022-10-08T05:08:38.109Z,11.35
2022-10-08T05:09:38.112Z,11.35
2022-10-08T05:10:38.086Z,11.33
2022-10-08T05:11:38.125Z,11.35
2022-10-08T05:12:38.119Z,11.36
2022-10-08T05:13:38.106Z,11.37
2022-10-08T05:14:38.111Z,11.37
2022-10-08T05:15:38.141Z,11.37
2022-10-08T05:16:38.082Z,11.39
2022-10-08T05:17:38.016Z,11.40
2022-10-08T05:18:38.002Z,11.42
2022-10-08T05:19:37.997Z,11.42
2022-10-08T05:20:37.978Z,11.42
2022-10-08T05:21:37.975Z,11.43
2022-10-08T05:22:37.966Z,11.44
2022-10-08T05:23:37.945Z,11.46
2022-10-08T05:24:37.936Z,11.44
2022-10-08T05:25:37.922Z,11.47
2022-10-08T05:27:36.893Z,11.51
2022-10-08T05:28:37.967Z,11.51
2022-10-08T05:29:37.883Z,11.51
2022-10-08T05:30:37.869Z,11.47
2022-10-08T05:31:37.920Z,11.47
2022-10-08T05:32:37.849Z,11.49
2022-10-08T05:33:37.842Z,11.51
2022-10-08T05:34:37.832Z,11.49
2022-10-08T05:35:37.821Z,11.51
2022-10-08T05:36:37.822Z,11.52
2022-10-08T05:37:37.791Z,11.54
2022-10-08T05:38:37.783Z,11.54
2022-10-08T05:39:37.769Z,11.54
2022-10-08T05:40:37.766Z,11.57
2022-10-08T05:41:37.764Z,11.58
2022-10-08T05:42:37.752Z,11.58
2022-10-08T05:43:37.731Z,11.58
2022-10-08T05:44:37.979Z,11.61
2022-10-08T05:45:37.707Z,11.62
2022-10-08T05:46:37.813Z,11.64
2022-10-08T05:47:37.695Z,11.65
2022-10-08T05:48:37.678Z,11.69
2022-10-08T05:49:37.665Z,11.70
2022-10-08T05:50:37.656Z,11.73
2022-10-08T05:51:37.641Z,11.72
2022-10-08T05:52:37.641Z,11.76
2022-10-08T05:53:37.637Z,11.76
2022-10-08T05:54:37.610Z,11.79
2022-10-08T05:55:37.595Z,11.82
2022-10-08T05:56:37.592Z,11.85
2022-10-08T05:57:37.577Z,11.85
2022-10-08T05:58:37.574Z,11.88
2022-10-08T05:59:37.564Z,11.91
2022-10-08T06:00:37.545Z,11.95
2022-10-08T06:01:37.532Z,11.96
2022-10-08T06:02:37.564Z,11.98
2022-10-08T06:03:37.511Z,12.01
2022-10-08T06:04:37.569Z,12.02
2022-10-08T06:05:37.491Z,12.04
2022-10-08T06:06:37.481Z,12.05
2022-10-08T06:07:37.467Z,12.07
2022-10-08T06:08:37.460Z,12.09
2022-10-08T06:09:37.456Z,12.10
2022-10-08T06:10:37.454Z,12.12
2022-10-08T06:11:37.429Z,12.13
2022-10-08T06:12:37.421Z,12.12
2022-10-08T06:13:37.403Z,12.13
2022-10-08T06:14:37.406Z,12.13
2022-10-08T06:15:37.382Z,12.14
2022-10-08T06:16:37.465Z,12.17
2022-10-08T06:17:37.370Z,12.17
2022-10-08T06:18:37.355Z,12.19
2022-10-08T06:19:37.358Z,12.23
2022-10-08T06:20:37.330Z,12.24
2022-10-08T06:21:37.322Z,12.28
2022-10-08T06:22:37.310Z,12.29
2022-10-08T06:23:37.307Z,12.31
2022-10-08T06:24:37.293Z,12.34
2022-10-08T06:25:37.288Z,12.37
2022-10-08T06:26:37.269Z,12.38
2022-10-08T06:27:37.264Z,12.39
2022-10-08T06:28:37.346Z,12.41
2022-10-08T06:29:37.231Z,12.42
2022-10-08T06:30:37.539Z,12.45
2022-10-08T06:31:37.268Z,12.45
2022-10-08T06:32:37.201Z,12.45
2022-10-08T06:33:37.189Z,12.46
2022-10-08T06:34:37.178Z,12.46
2022-10-08T06:35:37.173Z,12.49
2022-10-08T06:36:37.169Z,12.49
2022-10-08T06:37:37.170Z,12.50
2022-10-08T06:38:37.140Z,12.53
2022-10-08T06:39:37.123Z,12.53
2022-10-08T06:40:37.116Z,12.56
2022-10-08T06:41:37.144Z,12.59
2022-10-08T06:42:37.098Z,12.59
2022-10-08T06:43:37.084Z,12.64
2022-10-08T06:44:37.074Z,12.68
2022-10-08T06:45:37.061Z,12.72
2022-10-08T06:46:37.120Z,12.78
2022-10-08T06:47:37.047Z,12.82
2022-10-08T06:48:37.055Z,12.79
2022-10-08T06:49:37.013Z,12.79
2022-10-08T06:50:37.011Z,12.83
2022-10-08T06:51:37.013Z,12.87
2022-10-08T06:52:36.985Z,12.90
2022-10-08T06:53:36.970Z,12.95
2022-10-08T06:54:36.961Z,12.97
2022-10-08T06:55:36.954Z,13.05
2022-10-08T06:56:36.952Z,13.14
2022-10-08T06:57:36.946Z,13.22
2022-10-08T06:58:36.925Z,13.30
2022-10-08T06:59:36.919Z,13.41
2022-10-08T07:00:36.911Z,13.44
2022-10-08T07:01:37.062Z,13.42
2022-10-08T07:02:37.013Z,13.46
2022-10-08T07:03:36.874Z,13.52
2022-10-08T07:04:36.862Z,13.57
2022-10-08T07:05:36.847Z,13.64
2022-10-08T07:06:36.832Z,13.69
2022-10-08T07:07:36.824Z,13.69
2022-10-08T07:08:36.813Z,13.69
2022-10-08T07:09:36.811Z,13.73
2022-10-08T07:10:36.787Z,13.78
2022-10-08T07:11:36.782Z,13.81
2022-10-08T07:12:36.767Z,13.81
2022-10-08T07:13:36.764Z,13.84
2022-10-08T07:14:36.765Z,13.81
2022-10-08T07:15:36.739Z,13.84
2022-10-08T07:16:36.911Z,13.91
2022-10-08T07:17:36.719Z,14.03
2022-10-08T07:18:36.710Z,14.14
2022-10-08T07:19:36.695Z,14.27
2022-10-08T07:20:36.696Z,14.39
2022-10-08T07:21:36.690Z,14.54
2022-10-08T07:22:36.662Z,14.62
2022-10-08T07:23:36.652Z,14.68
2022-10-08T07:24:36.643Z,14.62
2022-10-08T07:25:36.631Z,14.55
2022-10-08T07:26:36.636Z,14.40
2022-10-08T07:27:37.453Z,14.33
2022-10-08T07:28:36.644Z,14.27
2022-10-08T07:29:36.600Z,14.25
2022-10-08T07:30:36.579Z,14.25
2022-10-08T07:31:36.650Z,14.28
2022-10-08T07:32:36.560Z,14.33
2022-10-08T07:33:36.560Z,14.37
2022-10-08T07:34:36.531Z,14.46
2022-10-08T07:35:36.535Z,14.61
2022-10-08T07:36:36.508Z,14.83
2022-10-08T07:37:36.514Z,15.03
2022-10-08T07:38:36.488Z,15.20
2022-10-08T07:39:36.482Z,15.34
2022-10-08T07:40:36.477Z,15.44
2022-10-08T07:41:36.459Z,15.47
2022-10-08T07:42:36.455Z,15.39
2022-10-08T07:43:36.440Z,15.31
2022-10-08T07:44:36.432Z,15.17
2022-10-08T07:45:36.473Z,15.10
2022-10-08T07:46:36.410Z,15.17
2022-10-08T07:47:36.412Z,15.29
2022-10-08T07:48:36.382Z,15.36
2022-10-08T07:49:36.375Z,15.46
2022-10-08T07:50:36.376Z,15.59
2022-10-08T07:51:36.359Z,15.82
2022-10-08T07:52:36.338Z,16.14
2022-10-08T07:53:36.345Z,16.21
2022-10-08T07:54:36.323Z,16.23
2022-10-08T07:55:36.310Z,16.11
2022-10-08T07:56:36.300Z,16.08
2022-10-08T07:57:36.301Z,16.11
2022-10-08T07:58:36.295Z,16.09
2022-10-08T07:59:36.292Z,16.14
2022-10-08T08:00:36.283Z,16.23
2022-10-08T08:01:36.246Z,16.09
2022-10-08T08:02:36.310Z,16.01
2022-10-08T08:03:36.259Z,15.96
2022-10-08T08:04:36.221Z,15.90
2022-10-08T08:05:36.204Z,15.80
2022-10-08T08:06:36.188Z,15.72
2022-10-08T08:07:36.185Z,15.69
2022-10-08T08:08:36.167Z,15.59
2022-10-08T08:09:36.171Z,15.53
2022-10-08T08:10:36.156Z,15.47
2022-10-08T08:11:36.138Z,15.49
2022-10-08T08:12:36.126Z,15.54
2022-10-08T08:13:37.492Z,15.62
2022-10-08T08:14:36.112Z,15.71
2022-10-08T08:15:36.096Z,15.74
2022-10-08T08:16:36.140Z,15.78
2022-10-08T08:17:36.074Z,15.86
2022-10-08T08:18:36.061Z,15.93
2022-10-08T08:19:36.063Z,15.94
2022-10-08T08:20:36.039Z,15.94
2022-10-08T08:21:36.037Z,15.94
2022-10-08T08:22:36.021Z,15.97
2022-10-08T08:23:36.010Z,16.05
2022-10-08T08:24:36.008Z,16.12
2022-10-08T08:25:35.987Z,16.11
2022-10-08T08:26:36.011Z,16.14
2022-10-08T08:27:35.967Z,16.25
2022-10-08T08:28:36.054Z,16.27
2022-10-08T08:29:35.948Z,16.23
2022-10-08T08:30:35.942Z,16.28
2022-10-08T08:31:35.984Z,16.23
2022-10-08T08:32:35.917Z,16.28
2022-10-08T08:33:35.907Z,16.41
2022-10-08T08:34:35.890Z,16.52
2022-10-08T08:35:35.901Z,16.64
2022-10-08T08:36:35.866Z,16.70
2022-10-08T08:37:35.860Z,16.73
2022-10-08T08:38:35.855Z,16.94
2022-10-08T08:39:35.848Z,17.04
2022-10-08T08:40:35.834Z,17.22
2022-10-08T08:41:35.849Z,17.46
2022-10-08T08:42:35.813Z,18.00
2022-10-08T08:43:35.797Z,18.33
2022-10-08T08:44:35.780Z,18.52
2022-10-08T08:45:46.488Z,18.80
2022-10-08T08:46:35.836Z,18.84
2022-10-08T08:47:35.767Z,18.99
2022-10-08T08:48:35.740Z,19.02
2022-10-08T08:49:35.732Z,19.02
2022-10-08T08:50:35.719Z,19.04
2022-10-08T08:51:35.713Z,19.22
2022-10-08T08:52:35.723Z,19.39
2022-10-08T08:53:35.698Z,19.26
2022-10-08T08:54:35.692Z,19.32
2022-10-08T08:55:35.665Z,19.59
2022-10-08T08:56:35.658Z,19.91
2022-10-08T08:57:35.661Z,19.99
2022-10-08T08:58:35.642Z,20.21
2022-10-08T08:59:35.626Z,20.38
2022-10-08T09:00:35.615Z,20.62
2022-10-08T09:01:35.693Z,20.28
2022-10-08T09:02:35.590Z,20.02
2022-10-08T09:03:35.579Z,19.73
2022-10-08T09:04:35.577Z,19.56
2022-10-08T09:05:35.615Z,19.14
2022-10-08T09:06:35.543Z,19.36
2022-10-08T09:07:35.546Z,19.21
2022-10-08T09:08:35.521Z,19.36
2022-10-08T09:09:35.529Z,19.84
2022-10-08T09:10:35.502Z,20.23
2022-10-08T09:11:35.506Z,20.88
2022-10-08T09:12:35.480Z,21.24
2022-10-08T09:13:35.473Z,21.12
2022-10-08T09:14:35.470Z,20.69
2022-10-08T09:15:35.453Z,20.59
2022-10-08T09:16:35.504Z,20.64
2022-10-08T09:17:35.431Z,20.80
2022-10-08T09:18:35.415Z,20.79
2022-10-08T09:19:35.418Z,20.97
2022-10-08T09:20:39.973Z,21.09
2022-10-08T09:21:35.393Z,20.77
2022-10-08T09:22:35.375Z,20.48
2022-10-08T09:23:35.365Z,20.58
2022-10-08T09:24:35.358Z,20.57
2022-10-08T09:25:35.354Z,20.43
2022-10-08T09:26:35.329Z,20.43
2022-10-08T09:27:35.332Z,20.72
2022-10-08T09:28:35.358Z,21.19
2022-10-08T09:29:35.301Z,21.40
2022-10-08T09:30:35.317Z,21.83
2022-10-08T09:31:35.408Z,21.98
2022-10-08T09:32:35.266Z,22.24
2022-10-08T09:33:35.263Z,22.36
2022-10-08T09:34:35.245Z,22.33
2022-10-08T09:35:35.262Z,22.47
2022-10-08T09:36:35.240Z,22.54
2022-10-08T09:37:35.218Z,22.60
2022-10-08T09:38:35.210Z,22.82
2022-10-08T09:39:35.195Z,22.65
2022-10-08T09:40:35.184Z,22.12
2022-10-08T09:41:35.179Z,22.00
2022-10-08T09:42:35.175Z,22.31
2022-10-08T09:43:35.177Z,22.57
2022-10-08T09:44:35.143Z,22.39
2022-10-08T09:45:35.164Z,22.42
2022-10-08T09:46:35.119Z,22.45
2022-10-08T09:47:35.130Z,22.49
2022-10-08T09:48:35.109Z,22.97
2022-10-08T09:49:35.093Z,23.32
2022-10-08T09:50:35.078Z,23.28
2022-10-08T09:51:35.082Z,23.57
2022-10-08T09:52:35.055Z,23.02
2022-10-08T09:53:35.047Z,22.45
2022-10-08T09:54:35.036Z,21.98
2022-10-08T09:55:35.028Z,21.62
2022-10-08T09:56:35.028Z,21.32
2022-10-08T09:57:35.014Z,21.06
2022-10-08T09:58:35.020Z,20.85
2022-10-08T09:59:34.997Z,20.35
2022-10-08T10:00:34.986Z,20.18
2022-10-08T10:01:35.049Z,20.20
2022-10-08T10:02:34.972Z,20.33
2022-10-08T10:03:34.965Z,20.50
2022-10-08T10:04:34.938Z,20.64
2022-10-08T10:05:34.927Z,20.73
2022-10-08T10:06:34.933Z,20.85
2022-10-08T10:07:34.921Z,20.89
2022-10-08T10:08:34.892Z,20.82
2022-10-08T10:09:34.885Z,20.74
2022-10-08T10:10:34.889Z,20.76
2022-10-08T10:11:34.860Z,21.01
2022-10-08T10:12:34.851Z,21.29
2022-10-08T10:13:34.852Z,21.80
2022-10-08T10:14:34.826Z,22.21
2022-10-08T10:15:34.818Z,22.24
2022-10-08T10:16:34.866Z,22.10
2022-10-08T10:17:34.799Z,22.22
2022-10-08T10:18:34.783Z,22.57
2022-10-08T10:19:34.785Z,22.77
2022-10-08T10:20:34.761Z,22.86
2022-10-08T10:21:34.772Z,22.82
2022-10-08T10:22:34.740Z,22.90
2022-10-08T10:23:34.745Z,22.98
2022-10-08T10:24:34.719Z,22.90
2022-10-08T10:25:34.711Z,22.68
2022-10-08T10:26:34.708Z,22.67
2022-10-08T10:27:34.699Z,23.04
2022-10-08T10:28:34.763Z,23.32
2022-10-08T10:29:34.670Z,23.32
2022-10-08T10:30:34.680Z,23.46
2022-10-08T10:31:34.651Z,23.48
2022-10-08T10:32:34.633Z,23.27
2022-10-08T10:33:34.629Z,23.10
2022-10-08T10:34:34.629Z,22.82
2022-10-08T10:35:34.673Z,22.82
2022-10-08T10:36:34.607Z,23.19
2022-10-08T10:37:34.587Z,23.70
2022-10-08T10:38:34.574Z,23.83
2022-10-08T10:39:34.575Z,23.68
2022-10-08T10:40:34.552Z,23.13
2022-10-08T10:41:34.559Z,23.35
2022-10-08T10:42:34.531Z,23.36
2022-10-08T10:43:34.523Z,23.16
2022-10-08T10:44:34.544Z,23.01
2022-10-08T10:45:34.503Z,23.13
2022-10-08T10:46:34.557Z,23.16
2022-10-08T10:47:34.482Z,23.15
2022-10-08T10:48:34.469Z,23.47
2022-10-08T10:49:34.467Z,22.90
2022-10-08T10:50:34.474Z,23.63
2022-10-08T10:51:34.440Z,23.50
2022-10-08T10:52:34.433Z,23.12
2022-10-08T10:53:34.419Z,23.09
2022-10-08T10:54:34.404Z,22.86
2022-10-08T10:55:34.407Z,22.15
2022-10-08T10:56:34.400Z,21.92
2022-10-08T10:57:34.378Z,21.90
2022-10-08T10:58:34.366Z,21.09
2022-10-08T10:59:34.357Z,20.58
2022-10-08T11:00:34.354Z,20.41
2022-10-08T11:01:34.401Z,20.87
2022-10-08T11:02:34.389Z,21.35
2022-10-08T11:03:34.317Z,21.67
2022-10-08T11:04:34.300Z,22.28
2022-10-08T11:05:34.292Z,23.01
2022-10-08T11:06:34.280Z,23.48
2022-10-08T11:07:34.280Z,23.95
2022-10-08T11:08:34.258Z,24.20
2022-10-08T11:09:34.387Z,24.39
2022-10-08T11:10:34.237Z,24.47
2022-10-08T11:11:34.241Z,24.47
2022-10-08T11:12:34.224Z,24.13
2022-10-08T11:13:34.205Z,23.87
2022-10-08T11:14:34.201Z,24.09
2022-10-08T11:15:34.243Z,24.40
2022-10-08T11:16:34.191Z,24.84
2022-10-08T11:17:34.171Z,25.03
2022-10-08T11:18:34.158Z,24.87
2022-10-08T11:19:34.143Z,24.73
2022-10-08T11:20:34.137Z,24.43
2022-10-08T11:21:34.146Z,24.52
2022-10-08T11:22:34.136Z,24.77
2022-10-08T11:23:34.121Z,24.53
2022-10-08T11:24:34.096Z,24.37
2022-10-08T11:25:49.786Z,24.32
2022-10-08T11:26:34.081Z,23.85
2022-10-08T11:27:34.105Z,24.09
2022-10-08T11:28:34.165Z,24.06
2022-10-08T11:29:34.063Z,24.42
2022-10-08T11:30:34.040Z,24.83
2022-10-08T11:31:34.037Z,25.06
2022-10-08T11:32:34.012Z,25.15
2022-10-08T11:33:34.002Z,24.99
2022-10-08T11:34:33.994Z,24.25
2022-10-08T11:35:33.981Z,24.39
2022-10-08T11:36:33.972Z,24.98
2022-10-08T11:37:33.974Z,25.24
2022-10-08T11:38:33.961Z,25.45
2022-10-08T11:39:33.939Z,25.45
2022-10-08T11:40:33.942Z,25.35
2022-10-08T11:41:33.921Z,24.85
2022-10-08T11:42:39.203Z,25.05
2022-10-08T11:43:33.902Z,25.06
2022-10-08T11:44:33.891Z,24.31
2022-10-08T11:45:33.883Z,23.40
2022-10-08T11:46:33.919Z,23.20
2022-10-08T11:47:33.856Z,23.23
2022-10-08T11:48:33.861Z,22.76
2022-10-08T11:49:33.835Z,22.47
2022-10-08T11:50:33.827Z,22.35
2022-10-08T11:51:33.822Z,22.15
2022-10-08T11:52:33.807Z,21.82
2022-10-08T11:53:33.804Z,21.46
2022-10-08T11:54:33.789Z,21.47
2022-10-08T11:55:33.774Z,21.40
2022-10-08T11:56:33.768Z,21.12
2022-10-08T11:58:32.751Z,21.25
2022-10-08T11:59:33.737Z,21.46
2022-10-08T12:00:33.731Z,21.99
2022-10-08T12:01:33.709Z,22.24
2022-10-08T12:02:33.875Z,22.36
2022-10-08T12:03:33.898Z,22.37
2022-10-08T12:04:33.682Z,22.79
2022-10-08T12:05:33.673Z,23.20
2022-10-08T12:06:33.661Z,23.40
2022-10-08T12:07:33.667Z,23.48
2022-10-08T12:08:33.695Z,23.70
2022-10-08T12:09:33.641Z,23.43
2022-10-08T12:10:33.616Z,22.70
2022-10-08T12:11:33.610Z,22.07
2022-10-08T12:12:33.597Z,22.25
2022-10-08T12:13:33.587Z,22.70
2022-10-08T12:14:33.576Z,23.02
2022-10-08T12:15:33.576Z,23.61
2022-10-08T12:16:33.587Z,23.83
2022-10-08T12:17:33.541Z,23.91
2022-10-08T12:18:33.535Z,24.32
2022-10-08T12:19:33.519Z,24.25
2022-10-08T12:20:33.515Z,23.58
2022-10-08T12:21:33.524Z,22.97
2022-10-08T12:22:33.506Z,22.72
2022-10-08T12:23:33.494Z,22.15
2022-10-08T12:24:33.473Z,22.30
2022-10-08T12:25:33.478Z,22.47
2022-10-08T12:26:33.451Z,22.77
2022-10-08T12:27:33.436Z,22.42
2022-10-08T12:28:33.458Z,22.10
2022-10-08T12:29:33.414Z,21.94
2022-10-08T12:30:33.432Z,21.79
2022-10-08T12:31:33.504Z,21.91
2022-10-08T12:32:33.387Z,22.06
2022-10-08T12:33:33.377Z,22.17
2022-10-08T12:34:33.365Z,22.06
2022-10-08T12:35:33.358Z,22.54
2022-10-08T12:36:33.358Z,22.79
2022-10-08T12:37:33.330Z,23.28
2022-10-08T12:38:33.324Z,23.98
2022-10-08T12:39:33.310Z,24.22
2022-10-08T12:40:33.310Z,24.45
2022-10-08T12:41:33.292Z,24.88
2022-10-08T12:42:33.281Z,24.73
2022-10-08T12:43:33.272Z,24.99
2022-10-08T12:44:33.260Z,24.55
2022-10-08T12:45:33.246Z,24.43
2022-10-08T12:46:33.347Z,24.69
2022-10-08T12:47:33.226Z,24.58
2022-10-08T12:48:33.229Z,24.15
2022-10-08T12:49:33.216Z,23.51
2022-10-08T12:50:33.199Z,23.40
2022-10-08T12:51:33.194Z,23.05
2022-10-08T12:52:33.197Z,22.98
2022-10-08T12:53:33.161Z,23.05
2022-10-08T12:54:33.163Z,22.73